sensor_id;sensor_type;location;lat;lon;timestamp;temperature;humidity
16838;DHT22;19510;54.486;9.046;2023-07-22T00:02:20;14.50;99.90
16838;DHT22;19510;54.486;9.046;2023-07-22T00:04:46;14.40;99.90
16838;DHT22;19510;54.486;9.046;2023-07-22T00:07:11;14.40;99.90
16838;DHT22;19510;54.486;9.046;2023-07-22T00:09:37;14.40;99.90
16838;DHT22;19510;54.486;9.046;2023-07-22T00:12:04;14.50;99.90
16838;DHT22;19510;54.486;9.046;2023-07-22T00:14:30;14.50;99.90
16838;DHT22;19510;54.486;9.046;2023-07-22T00:16:56;14.50;99.90
16838;DHT22;19510;54.486;9.046;2023-07-22T00:19:21;14.50;99.90
16838;DHT22;19510;54.486;9.046;2023-07-22T00:21:49;14.50;99.90
16838;DHT22;19510;54.486;9.046;2023-07-22T00:24:15;14.50;99.90
16838;DHT22;19510;54.486;9.046;2023-07-22T00:26:41;14.50;99.90
16838;DHT22;19510;54.486;9.046;2023-07-22T00:29:08;14.50;99.90
16838;DHT22;19510;54.486;9.046;2023-07-22T00:31:33;14.50;99.90
16838;DHT22;19510;54.486;9.046;2023-07-22T00:33:59;14.60;99.90
16838;DHT22;19510;54.486;9.046;2023-07-22T00:36:25;14.50;99.90
16838;DHT22;19510;54.486;9.046;2023-07-22T00:38:51;14.50;99.90
16838;DHT22;19510;54.486;9.046;2023-07-22T00:41:18;14.60;99.90
16838;DHT22;19510;54.486;9.046;2023-07-22T00:43:44;14.50;99.90
16838;DHT22;19510;54.486;9.046;2023-07-22T00:46:10;14.50;99.90
16838;DHT22;19510;54.486;9.046;2023-07-22T00:48:36;14.50;99.90
16838;DHT22;19510;54.486;9.046;2023-07-22T00:51:02;14.60;99.90
16838;DHT22;19510;54.486;9.046;2023-07-22T00:53:28;14.60;99.90
16838;DHT22;19510;54.486;9.046;2023-07-22T00:55:54;14.60;99.90
16838;DHT22;19510;54.486;9.046;2023-07-22T00:58:20;14.60;99.90
16838;DHT22;19510;54.486;9.046;2023-07-22T01:00:46;14.60;99.90
16838;DHT22;19510;54.486;9.046;2023-07-22T01:03:13;14.60;99.90
16838;DHT22;19510;54.486;9.046;2023-07-22T01:05:39;14.60;99.90
16838;DHT22;19510;54.486;9.046;2023-07-22T01:08:07;14.60;99.90
16838;DHT22;19510;54.486;9.046;2023-07-22T01:10:33;14.60;99.90
16838;DHT22;19510;54.486;9.046;2023-07-22T01:12:58;14.60;99.90
16838;DHT22;19510;54.486;9.046;2023-07-22T01:15:28;14.60;99.90
16838;DHT22;19510;54.486;9.046;2023-07-22T01:17:54;14.60;99.90
16838;DHT22;19510;54.486;9.046;2023-07-22T01:20:22;14.60;99.90
16838;DHT22;19510;54.486;9.046;2023-07-22T01:22:52;14.70;99.90
16838;DHT22;19510;54.486;9.046;2023-07-22T01:25:20;14.60;99.90
16838;DHT22;19510;54.486;9.046;2023-07-22T01:27:52;14.60;99.90
16838;DHT22;19510;54.486;9.046;2023-07-22T01:30:18;14.50;99.90
16838;DHT22;19510;54.486;9.046;2023-07-22T01:32:45;14.60;99.90
16838;DHT22;19510;54.486;9.046;2023-07-22T01:35:11;14.50;99.90
16838;DHT22;19510;54.486;9.046;2023-07-22T01:37:37;14.60;99.90
16838;DHT22;19510;54.486;9.046;2023-07-22T01:40:03;14.60;99.90
16838;DHT22;19510;54.486;9.046;2023-07-22T01:42:42;14.60;99.90
16838;DHT22;19510;54.486;9.046;2023-07-22T01:45:08;14.60;99.90
16838;DHT22;19510;54.486;9.046;2023-07-22T01:47:35;14.50;99.90
16838;DHT22;19510;54.486;9.046;2023-07-22T01:50:02;14.50;99.90
16838;DHT22;19510;54.486;9.046;2023-07-22T01:52:28;14.50;99.90
16838;DHT22;19510;54.486;9.046;2023-07-22T01:54:56;14.40;99.90
16838;DHT22;19510;54.486;9.046;2023-07-22T01:57:22;14.30;99.90
16838;DHT22;19510;54.486;9.046;2023-07-22T01:59:47;14.30;99.90
16838;DHT22;19510;54.486;9.046;2023-07-22T02:02:14;14.20;99.90
16838;DHT22;19510;54.486;9.046;2023-07-22T02:04:40;14.20;99.90
16838;DHT22;19510;54.486;9.046;2023-07-22T02:07:05;14.10;99.90
16838;DHT22;19510;54.486;9.046;2023-07-22T02:09:32;14.10;99.90
16838;DHT22;19510;54.486;9.046;2023-07-22T02:11:58;14.10;99.90
16838;DHT22;19510;54.486;9.046;2023-07-22T02:14:24;14.00;99.90
16838;DHT22;19510;54.486;9.046;2023-07-22T02:16:50;14.10;99.90
16838;DHT22;19510;54.486;9.046;2023-07-22T02:19:15;14.10;99.90
16838;DHT22;19510;54.486;9.046;2023-07-22T02:21:41;14.10;99.90
16838;DHT22;19510;54.486;9.046;2023-07-22T02:24:09;14.00;99.90
16838;DHT22;19510;54.486;9.046;2023-07-22T02:26:35;14.00;99.90
16838;DHT22;19510;54.486;9.046;2023-07-22T02:29:00;14.00;99.90
16838;DHT22;19510;54.486;9.046;2023-07-22T02:31:26;14.00;99.90
16838;DHT22;19510;54.486;9.046;2023-07-22T02:33:52;14.00;99.90
16838;DHT22;19510;54.486;9.046;2023-07-22T02:36:17;14.00;99.90
16838;DHT22;19510;54.486;9.046;2023-07-22T02:38:43;14.00;99.90
16838;DHT22;19510;54.486;9.046;2023-07-22T02:41:09;14.00;99.90
16838;DHT22;19510;54.486;9.046;2023-07-22T02:43:35;14.00;99.90
16838;DHT22;19510;54.486;9.046;2023-07-22T02:46:05;14.00;99.90
16838;DHT22;19510;54.486;9.046;2023-07-22T02:48:33;14.00;99.90
16838;DHT22;19510;54.486;9.046;2023-07-22T02:51:06;14.00;99.90
16838;DHT22;19510;54.486;9.046;2023-07-22T02:53:32;14.00;99.90
16838;DHT22;19510;54.486;9.046;2023-07-22T02:55:59;14.00;99.90
16838;DHT22;19510;54.486;9.046;2023-07-22T02:58:25;14.00;99.90
16838;DHT22;19510;54.486;9.046;2023-07-22T03:00:50;14.00;99.90
16838;DHT22;19510;54.486;9.046;2023-07-22T03:03:16;14.00;99.90
16838;DHT22;19510;54.486;9.046;2023-07-22T03:05:42;14.10;99.90
16838;DHT22;19510;54.486;9.046;2023-07-22T03:08:07;14.00;99.90
16838;DHT22;19510;54.486;9.046;2023-07-22T03:10:33;14.00;99.90
16838;DHT22;19510;54.486;9.046;2023-07-22T03:12:59;13.90;99.90
16838;DHT22;19510;54.486;9.046;2023-07-22T03:15:25;13.90;99.90
16838;DHT22;19510;54.486;9.046;2023-07-22T03:17:51;13.90;99.90
16838;DHT22;19510;54.486;9.046;2023-07-22T03:20:18;13.90;99.90
16838;DHT22;19510;54.486;9.046;2023-07-22T03:22:45;13.90;99.90
16838;DHT22;19510;54.486;9.046;2023-07-22T03:25:12;13.80;99.90
16838;DHT22;19510;54.486;9.046;2023-07-22T03:27:38;13.80;99.90
16838;DHT22;19510;54.486;9.046;2023-07-22T03:30:05;13.80;99.90
16838;DHT22;19510;54.486;9.046;2023-07-22T03:32:36;13.70;99.90
16838;DHT22;19510;54.486;9.046;2023-07-22T03:35:02;13.70;99.90
16838;DHT22;19510;54.486;9.046;2023-07-22T03:37:28;13.60;99.90
16838;DHT22;19510;54.486;9.046;2023-07-22T03:39:54;13.60;99.90
16838;DHT22;19510;54.486;9.046;2023-07-22T03:42:20;13.70;99.90
16838;DHT22;19510;54.486;9.046;2023-07-22T03:44:45;13.70;99.90
16838;DHT22;19510;54.486;9.046;2023-07-22T03:47:11;13.60;99.90
16838;DHT22;19510;54.486;9.046;2023-07-22T03:49:37;13.60;99.90
16838;DHT22;19510;54.486;9.046;2023-07-22T03:52:03;13.70;99.90
16838;DHT22;19510;54.486;9.046;2023-07-22T03:54:29;13.70;99.90
16838;DHT22;19510;54.486;9.046;2023-07-22T03:56:54;13.70;99.90
16838;DHT22;19510;54.486;9.046;2023-07-22T03:59:20;13.70;99.90
16838;DHT22;19510;54.486;9.046;2023-07-22T04:01:46;13.80;99.90
16838;DHT22;19510;54.486;9.046;2023-07-22T04:04:13;13.80;99.90
16838;DHT22;19510;54.486;9.046;2023-07-22T04:06:39;13.80;99.90
16838;DHT22;19510;54.486;9.046;2023-07-22T04:09:04;13.90;99.90
16838;DHT22;19510;54.486;9.046;2023-07-22T04:11:30;13.90;99.90
16838;DHT22;19510;54.486;9.046;2023-07-22T04:13:55;13.90;99.90
16838;DHT22;19510;54.486;9.046;2023-07-22T04:16:21;14.00;99.90
16838;DHT22;19510;54.486;9.046;2023-07-22T04:18:47;14.00;99.90
16838;DHT22;19510;54.486;9.046;2023-07-22T04:21:13;13.90;99.90
16838;DHT22;19510;54.486;9.046;2023-07-22T04:23:38;13.90;99.90
16838;DHT22;19510;54.486;9.046;2023-07-22T04:26:04;13.90;99.90
16838;DHT22;19510;54.486;9.046;2023-07-22T04:28:35;13.90;99.90
16838;DHT22;19510;54.486;9.046;2023-07-22T04:31:01;14.00;99.90
16838;DHT22;19510;54.486;9.046;2023-07-22T04:33:28;14.00;99.90
16838;DHT22;19510;54.486;9.046;2023-07-22T04:35:55;14.00;99.90
16838;DHT22;19510;54.486;9.046;2023-07-22T04:38:21;14.00;99.90
16838;DHT22;19510;54.486;9.046;2023-07-22T04:40:47;14.00;99.90
16838;DHT22;19510;54.486;9.046;2023-07-22T04:43:13;14.00;99.90
16838;DHT22;19510;54.486;9.046;2023-07-22T04:45:38;14.00;99.90
16838;DHT22;19510;54.486;9.046;2023-07-22T04:48:06;14.00;99.90
16838;DHT22;19510;54.486;9.046;2023-07-22T04:50:32;13.90;99.90
16838;DHT22;19510;54.486;9.046;2023-07-22T04:52:58;13.90;99.90
16838;DHT22;19510;54.486;9.046;2023-07-22T04:55:23;14.00;99.90
16838;DHT22;19510;54.486;9.046;2023-07-22T04:57:49;14.00;99.90
16838;DHT22;19510;54.486;9.046;2023-07-22T05:00:17;14.00;99.90
16838;DHT22;19510;54.486;9.046;2023-07-22T05:02:46;14.00;99.90
16838;DHT22;19510;54.486;9.046;2023-07-22T05:05:15;14.00;99.90
16838;DHT22;19510;54.486;9.046;2023-07-22T05:07:42;14.00;99.90
16838;DHT22;19510;54.486;9.046;2023-07-22T05:10:08;14.10;99.90
16838;DHT22;19510;54.486;9.046;2023-07-22T05:12:38;14.20;99.90
16838;DHT22;19510;54.486;9.046;2023-07-22T05:15:05;14.20;99.90
16838;DHT22;19510;54.486;9.046;2023-07-22T05:17:31;14.30;99.90
16838;DHT22;19510;54.486;9.046;2023-07-22T05:19:57;14.40;99.90
16838;DHT22;19510;54.486;9.046;2023-07-22T05:22:23;14.50;99.90
16838;DHT22;19510;54.486;9.046;2023-07-22T05:24:49;14.60;99.90
16838;DHT22;19510;54.486;9.046;2023-07-22T05:27:14;14.60;99.90
16838;DHT22;19510;54.486;9.046;2023-07-22T05:29:40;14.70;99.90
16838;DHT22;19510;54.486;9.046;2023-07-22T05:32:06;14.60;99.90
16838;DHT22;19510;54.486;9.046;2023-07-22T05:34:32;14.50;99.90
16838;DHT22;19510;54.486;9.046;2023-07-22T05:36:58;14.60;99.90
16838;DHT22;19510;54.486;9.046;2023-07-22T05:39:24;14.60;99.90
16838;DHT22;19510;54.486;9.046;2023-07-22T05:41:50;14.60;99.90
16838;DHT22;19510;54.486;9.046;2023-07-22T05:44:16;14.50;99.90
16838;DHT22;19510;54.486;9.046;2023-07-22T05:46:42;14.50;99.90
16838;DHT22;19510;54.486;9.046;2023-07-22T05:49:08;14.50;99.90
16838;DHT22;19510;54.486;9.046;2023-07-22T05:51:34;14.60;99.90
16838;DHT22;19510;54.486;9.046;2023-07-22T05:54:00;14.80;99.90
16838;DHT22;19510;54.486;9.046;2023-07-22T05:56:26;14.90;99.90
16838;DHT22;19510;54.486;9.046;2023-07-22T05:58:51;14.90;99.90
16838;DHT22;19510;54.486;9.046;2023-07-22T06:01:17;14.90;99.90
16838;DHT22;19510;54.486;9.046;2023-07-22T06:03:43;14.90;99.90
16838;DHT22;19510;54.486;9.046;2023-07-22T06:06:10;14.90;99.90
16838;DHT22;19510;54.486;9.046;2023-07-22T06:08:35;14.80;99.90
16838;DHT22;19510;54.486;9.046;2023-07-22T06:11:01;14.70;99.90
16838;DHT22;19510;54.486;9.046;2023-07-22T06:13:27;14.80;99.90
16838;DHT22;19510;54.486;9.046;2023-07-22T06:15:53;14.70;99.90
16838;DHT22;19510;54.486;9.046;2023-07-22T06:18:18;14.80;99.90
16838;DHT22;19510;54.486;9.046;2023-07-22T06:20:44;14.90;99.90
16838;DHT22;19510;54.486;9.046;2023-07-22T06:23:10;15.00;99.90
16838;DHT22;19510;54.486;9.046;2023-07-22T06:25:36;15.20;99.90
16838;DHT22;19510;54.486;9.046;2023-07-22T06:28:02;15.30;99.90
16838;DHT22;19510;54.486;9.046;2023-07-22T06:30:28;15.40;99.90
16838;DHT22;19510;54.486;9.046;2023-07-22T06:32:54;15.40;99.90
16838;DHT22;19510;54.486;9.046;2023-07-22T06:35:20;15.50;99.90
16838;DHT22;19510;54.486;9.046;2023-07-22T06:37:46;15.60;99.90
16838;DHT22;19510;54.486;9.046;2023-07-22T06:40:12;15.80;99.90
16838;DHT22;19510;54.486;9.046;2023-07-22T06:42:38;15.90;99.90
16838;DHT22;19510;54.486;9.046;2023-07-22T06:45:04;16.00;99.90
16838;DHT22;19510;54.486;9.046;2023-07-22T06:47:31;15.90;99.90
16838;DHT22;19510;54.486;9.046;2023-07-22T06:49:57;15.80;99.90
16838;DHT22;19510;54.486;9.046;2023-07-22T06:52:23;15.60;99.90
16838;DHT22;19510;54.486;9.046;2023-07-22T06:54:49;15.60;99.90
16838;DHT22;19510;54.486;9.046;2023-07-22T06:57:15;15.50;99.90
16838;DHT22;19510;54.486;9.046;2023-07-22T06:59:41;15.50;99.90
16838;DHT22;19510;54.486;9.046;2023-07-22T07:02:09;15.40;99.90
16838;DHT22;19510;54.486;9.046;2023-07-22T07:04:34;15.30;99.90
16838;DHT22;19510;54.486;9.046;2023-07-22T07:07:00;15.20;99.90
16838;DHT22;19510;54.486;9.046;2023-07-22T07:09:26;15.30;99.90
16838;DHT22;19510;54.486;9.046;2023-07-22T07:11:52;15.40;99.90
16838;DHT22;19510;54.486;9.046;2023-07-22T07:14:18;15.50;99.90
16838;DHT22;19510;54.486;9.046;2023-07-22T07:16:44;15.60;99.90
16838;DHT22;19510;54.486;9.046;2023-07-22T07:19:10;15.80;99.90
16838;DHT22;19510;54.486;9.046;2023-07-22T07:21:36;15.90;99.90
16838;DHT22;19510;54.486;9.046;2023-07-22T07:24:01;16.20;99.90
16838;DHT22;19510;54.486;9.046;2023-07-22T07:26:27;16.30;99.90
16838;DHT22;19510;54.486;9.046;2023-07-22T07:28:53;16.50;99.90
16838;DHT22;19510;54.486;9.046;2023-07-22T07:31:19;16.50;99.90
16838;DHT22;19510;54.486;9.046;2023-07-22T07:33:45;16.50;99.90
16838;DHT22;19510;54.486;9.046;2023-07-22T07:36:11;16.50;99.90
16838;DHT22;19510;54.486;9.046;2023-07-22T07:38:37;16.40;99.90
16838;DHT22;19510;54.486;9.046;2023-07-22T07:41:04;16.10;99.90
16838;DHT22;19510;54.486;9.046;2023-07-22T07:43:30;16.00;99.90
16838;DHT22;19510;54.486;9.046;2023-07-22T07:46:18;15.80;99.90
16838;DHT22;19510;54.486;9.046;2023-07-22T07:48:47;16.00;99.90
16838;DHT22;19510;54.486;9.046;2023-07-22T07:51:16;16.10;99.90
16838;DHT22;19510;54.486;9.046;2023-07-22T07:53:43;16.20;99.90
16838;DHT22;19510;54.486;9.046;2023-07-22T07:56:10;16.20;99.90
16838;DHT22;19510;54.486;9.046;2023-07-22T07:58:37;16.40;99.90
16838;DHT22;19510;54.486;9.046;2023-07-22T08:01:03;16.60;99.90
16838;DHT22;19510;54.486;9.046;2023-07-22T08:03:29;16.70;99.90
16838;DHT22;19510;54.486;9.046;2023-07-22T08:05:55;17.00;99.90
16838;DHT22;19510;54.486;9.046;2023-07-22T08:08:21;17.10;99.90
16838;DHT22;19510;54.486;9.046;2023-07-22T08:10:56;17.00;99.90
16838;DHT22;19510;54.486;9.046;2023-07-22T08:13:23;17.00;99.90
16838;DHT22;19510;54.486;9.046;2023-07-22T08:15:48;16.90;99.90
16838;DHT22;19510;54.486;9.046;2023-07-22T08:18:14;16.80;99.90
16838;DHT22;19510;54.486;9.046;2023-07-22T08:20:40;16.70;99.90
16838;DHT22;19510;54.486;9.046;2023-07-22T08:23:05;16.60;99.90
16838;DHT22;19510;54.486;9.046;2023-07-22T08:25:31;16.60;99.90
16838;DHT22;19510;54.486;9.046;2023-07-22T08:27:57;16.60;99.90
16838;DHT22;19510;54.486;9.046;2023-07-22T08:30:22;16.60;99.90
16838;DHT22;19510;54.486;9.046;2023-07-22T08:32:48;16.60;99.90
16838;DHT22;19510;54.486;9.046;2023-07-22T08:35:14;16.80;99.90
16838;DHT22;19510;54.486;9.046;2023-07-22T08:37:42;16.90;99.90
